地図

経路データ

SID SEASON NUMBER BASIN SUBBASIN NAME ISO_TIME NATURE LAT LON WMO_WIND WMO_PRES WMO_AGENCY TRACK_TYPE DIST2LAND LANDFALL IFLAG USA_AGENCY USA_ATCF_ID USA_LAT USA_LON USA_RECORD USA_STATUS USA_WIND USA_PRES USA_SSHS USA_R34_NE USA_R34_SE USA_R34_SW USA_R34_NW USA_R50_NE USA_R50_SE USA_R50_SW USA_R50_NW USA_R64_NE USA_R64_SE USA_R64_SW USA_R64_NW USA_POCI USA_ROCI USA_RMW USA_EYE TOKYO_LAT TOKYO_LON TOKYO_GRADE TOKYO_WIND TOKYO_PRES TOKYO_R50_DIR TOKYO_R50_LONG TOKYO_R50_SHORT TOKYO_R30_DIR TOKYO_R30_LONG TOKYO_R30_SHORT TOKYO_LAND CMA_LAT CMA_LON CMA_CAT CMA_WIND CMA_PRES HKO_LAT HKO_LON HKO_CAT HKO_WIND HKO_PRES NEWDELHI_LAT NEWDELHI_LON NEWDELHI_GRADE NEWDELHI_WIND NEWDELHI_PRES NEWDELHI_CI NEWDELHI_DP NEWDELHI_POCI REUNION_LAT REUNION_LON REUNION_TYPE REUNION_WIND REUNION_PRES REUNION_TNUM REUNION_CI REUNION_RMW REUNION_R34_NE REUNION_R34_SE REUNION_R34_SW REUNION_R34_NW REUNION_R50_NE REUNION_R50_SE REUNION_R50_SW REUNION_R50_NW REUNION_R64_NE REUNION_R64_SE REUNION_R64_SW REUNION_R64_NW BOM_LAT BOM_LON BOM_TYPE BOM_WIND BOM_PRES BOM_TNUM BOM_CI BOM_RMW BOM_R34_NE BOM_R34_SE BOM_R34_SW BOM_R34_NW BOM_R50_NE BOM_R50_SE BOM_R50_SW BOM_R50_NW BOM_R64_NE BOM_R64_SE BOM_R64_SW BOM_R64_NW BOM_ROCI BOM_POCI BOM_EYE BOM_POS_METHOD BOM_PRES_METHOD NADI_LAT NADI_LON NADI_CAT NADI_WIND NADI_PRES WELLINGTON_LAT WELLINGTON_LON WELLINGTON_WIND WELLINGTON_PRES DS824_LAT DS824_LON DS824_STAGE DS824_WIND DS824_PRES TD9636_LAT TD9636_LON TD9636_STAGE TD9636_WIND TD9636_PRES TD9635_LAT TD9635_LON TD9635_WIND TD9635_PRES TD9635_ROCI NEUMANN_LAT NEUMANN_LON NEUMANN_CLASS NEUMANN_WIND NEUMANN_PRES MLC_LAT MLC_LON MLC_CLASS MLC_WIND MLC_PRES USA_GUST BOM_GUST BOM_GUST_PER REUNION_GUST REUNION_GUST_PER USA_SEAHGT USA_SEARAD_NE USA_SEARAD_SE USA_SEARAD_SW USA_SEARAD_NW STORM_SPEED STORM_DIR
1948246N15134 1948 57 WP MM HAZEL 1948-09-02 06:00:00 TS 14.8000 133.700 main 933 892 O________O_O__ jtwc_wp WP131948 14.8000 133.700 60 0 14.8000 133.700 TC 60 14.8000 133.700 60 991 240 9 274
1948246N15134 1948 57 WP MM HAZEL 1948-09-02 09:00:00 TS 14.8302 133.257 main 892 845 P________P_P__ WP131948 14.8302 133.257 60 0 14.8302 133.257 TC 60 14.8302 133.257 60 990 240 9 277
1948246N15134 1948 57 WP MM HAZEL 1948-09-02 12:00:00 TS 14.9000 132.800 main 845 799 O________OOO__ jtwc_wp WP131948 14.9000 132.800 60 0 14.9000 132.800 TC 60 14.9000 132.800 2 60 14.9000 132.800 60 989 240 9 283
1948246N15134 1948 57 WP MM HAZEL 1948-09-02 15:00:00 TS 15.0361 132.306 main 799 759 P________PPP__ WP131948 15.0349 132.315 60 0 15.0349 132.315 TC 60 15.0434 132.249 2 61 15.0349 132.315 60 988 240 10 287
1948246N15134 1948 57 WP MM HAZEL 1948-09-02 18:00:00 TS 15.1978 131.782 main 759 716 O________OPO__ jtwc_wp WP131948 15.2000 131.800 60 0 15.2000 131.800 TC 60 15.1889 131.708 2 62 15.2000 131.800 60 987 240 11 286
1948246N15134 1948 57 WP MM HAZEL 1948-09-02 21:00:00 TS 15.3419 131.223 main 706 672 P________PPP__ WP131948 15.3426 131.235 62 0 15.3426 131.235 TC 62 15.3399 131.188 2 63 15.3426 131.235 62 986 210 11 286
1948246N15134 1948 57 WP MM HAZEL 1948-09-03 00:00:00 TS 15.5000 130.700 main 672 649 O________OOO__ jtwc_wp WP131948 15.5000 130.700 65 1 15.5000 130.700 TC 65 15.5000 130.700 3 65 15.5000 130.700 65 985 180 10 291
1948246N15134 1948 57 WP MM HAZEL 1948-09-03 03:00:00 TS 15.6874 130.276 main 649 630 P________PPP__ WP131948 15.6922 130.285 67 1 15.6922 130.285 TC 67 15.6728 130.250 3 66 15.6922 130.285 67 984 210 9 296
1948246N15134 1948 57 WP MM HAZEL 1948-09-03 06:00:00 TS 15.8904 129.882 main 630 600 O________OPO__ jtwc_wp WP131948 15.9000 129.900 70 1 15.9000 129.900 TC 70 15.8617 129.827 3 67 15.9000 129.900 70 983 240 9 297
1948246N15134 1948 57 WP MM HAZEL 1948-09-03 09:00:00 TS 16.0867 129.452 main 600 562 P________PPP__ WP131948 16.0924 129.465 70 1 16.0924 129.465 TC 70 16.0698 129.415 3 68 16.0924 129.465 70 982 270 9 296
1948246N15134 1948 57 WP MM HAZEL 1948-09-03 12:00:00 TS 16.3000 129.000 main 562 527 O________OOO__ jtwc_wp WP131948 16.3000 129.000 70 1 16.3000 129.000 TC 70 16.3000 129.000 4 70 16.3000 129.000 70 982 300 10 297
1948246N15134 1948 57 WP MM HAZEL 1948-09-03 15:00:00 TS 16.5396 128.508 main 527 505 P________PPP__ WP131948 16.5350 128.492 70 1 16.5350 128.492 TC 70 16.5533 128.553 4 70 16.5350 128.492 70 981 300 11 298
1948246N15134 1948 57 WP MM HAZEL 1948-09-03 18:00:00 TS 16.8068 128.025 main 504 495 O________OPO__ jtwc_wp WP131948 16.8000 128.000 70 1 16.8000 128.000 TC 70 16.8273 128.100 4 70 16.8000 128.000 70 980 300 10 303
1948246N15134 1948 57 WP MM HAZEL 1948-09-03 21:00:00 TS 17.0974 127.606 main 495 487 P________PPP__ WP131948 17.0923 127.592 70 1 17.0923 127.592 TC 70 17.1127 127.647 4 70 17.0923 127.592 70 979 300 10 307
1948246N15134 1948 57 WP MM HAZEL 1948-09-04 00:00:00 TS 17.4000 127.200 main 491 461 O________OOO__ jtwc_wp WP131948 17.4000 127.200 70 1 17.4000 127.200 TC 70 17.4000 127.200 4 70 17.4000 127.200 70 978 300 10 306
1948246N15134 1948 57 WP MM HAZEL 1948-09-04 03:00:00 TS 17.6952 126.755 main 463 418 P________PPP__ WP131948 17.7075 126.750 72 1 17.7075 126.750 TC 72 17.6583 126.771 4 71 17.7075 126.750 72 977 270 10 304
1948246N15134 1948 57 WP MM HAZEL 1948-09-04 06:00:00 TS 17.9799 126.312 main 418 380 O________OPO__ jtwc_wp WP131948 18.0000 126.300 75 1 18.0000 126.300 TC 75 17.9194 126.349 4 72 18.0000 126.300 75 976 240 10 304
1948246N15134 1948 57 WP MM HAZEL 1948-09-04 09:00:00 TS 18.2307 125.907 main 380 337 P________PPP__ WP131948 18.2423 125.900 75 1 18.2423 125.900 TC 75 18.1958 125.927 4 73 18.2423 125.900 75 975 240 9 304
1948246N15134 1948 57 WP MM HAZEL 1948-09-04 12:00:00 TS 18.5000 125.500 main 337 298 O________OOO__ jtwc_wp WP131948 18.5000 125.500 75 1 18.5000 125.500 TC 75 18.5000 125.500 4 75 18.5000 125.500 75 974 240 10 306
1948246N15134 1948 57 WP MM HAZEL 1948-09-04 15:00:00 TS 18.8271 125.051 main 298 258 P________PPP__ WP131948 18.8274 125.057 75 1 18.8274 125.057 TC 75 18.8261 125.033 4 75 18.8274 125.057 75 972 240 11 309
1948246N15134 1948 57 WP MM HAZEL 1948-09-04 18:00:00 TS 19.1957 124.591 main 258 234 O________OPO__ jtwc_wp WP131948 19.2000 124.600 75 1 19.2000 124.600 TC 75 19.1828 124.562 4 75 19.2000 124.600 75 971 240 12 311
1948246N15134 1948 57 WP MM HAZEL 1948-09-04 21:00:00 TS 19.5764 124.129 main 232 223 P________PPP__ WP131948 19.5775 124.135 75 1 19.5775 124.135 TC 75 19.5730 124.111 4 75 19.5775 124.135 75 970 240 12 314
1948246N15134 1948 57 WP MM HAZEL 1948-09-05 00:00:00 TS 20.0000 123.700 main 231 231 O________OOO__ jtwc_wp WP131948 20.0000 123.700 75 1 20.0000 123.700 TC 75 20.0000 123.700 4 75 20.0000 123.700 75 969 240 12 320
1948246N15134 1948 57 WP MM HAZEL 1948-09-05 03:00:00 TS 20.4786 123.322 main 257 239 P________PPP__ WP131948 20.4849 123.320 77 1 20.4849 123.320 TC 77 20.4597 123.328 4 76 20.4849 123.320 77 968 270 12 326
1948246N15134 1948 57 WP MM HAZEL 1948-09-05 06:00:00 TS 20.9887 123.001 main 239 191 O________OPO__ jtwc_wp WP131948 21.0000 123.000 80 1 21.0000 123.000 TC 80 20.9547 123.003 4 77 21.0000 123.000 80 967 300 12 331
1948246N15134 1948 57 WP MM HAZEL 1948-09-05 09:00:00 TS 21.4930 122.721 main 191 164 P________PPP__ WP131948 21.4999 122.720 80 1 21.4999 122.720 TC 80 21.4724 122.725 4 78 21.4999 122.720 80 966 300 11 335
1948246N15134 1948 57 WP MM HAZEL 1948-09-05 12:00:00 TS 22.0000 122.500 main 164 114 O________OOO__ jtwc_wp WP131948 22.0000 122.500 80 1 22.0000 122.500 TC 80 22.0000 122.500 4 80 22.0000 122.500 80 966 300 11 340
1948246N15134 1948 57 WP MM HAZEL 1948-09-05 15:00:00 TS 22.4987 122.320 main 114 82 P________PPP__ WP131948 22.4925 122.327 80 1 22.4925 122.327 TC 80 22.5175 122.300 4 77 22.4925 122.327 80 966 300 11 344
1948246N15134 1948 57 WP MM HAZEL 1948-09-05 18:00:00 TS 23.0105 122.188 main 82 65 O________OPO__ jtwc_wp WP131948 23.0000 122.200 80 1 23.0000 122.200 TC 80 23.0422 122.152 4 75 23.0000 122.200 80 967 300 11 348
1948246N15134 1948 57 WP MM HAZEL 1948-09-05 21:00:00 TS 23.5608 122.072 main 62 37 P________PPP__ WP131948 23.5575 122.078 75 1 23.5575 122.078 TC 75 23.5708 122.053 4 72 23.5575 122.078 75 967 300 11 351
1948246N15134 1948 57 WP MM HAZEL 1948-09-06 00:00:00 TS 24.1000 122.000 main 37 10 O________OOO__ jtwc_wp WP131948 24.1000 122.000 70 1 24.1000 122.000 TC 70 24.1000 122.000 4 70 24.1000 122.000 70 968 300 10 355
1948246N15134 1948 57 WP MM HAZEL 1948-09-06 03:00:00 TS 24.5600 121.971 main 15 0 P________PPP__ WP131948 24.5425 121.977 70 1 24.5425 121.977 TC 70 24.6127 121.954 4 67 24.5425 121.977 70 969 300 9 359
1948246N15134 1948 57 WP MM HAZEL 1948-09-06 06:00:00 TS 25.0318 121.988 main 0 0 O________OPO__ jtwc_wp WP131948 25.0000 122.000 70 1 25.0000 122.000 TC 70 25.1273 121.953 4 65 25.0000 122.000 70 970 300 10 3
1948246N15134 1948 57 WP MM HAZEL 1948-09-06 09:00:00 TS 25.6021 122.021 main 60 60 P________PPP__ WP131948 25.5850 122.028 65 1 25.5850 122.028 TC 65 25.6533 122.001 4 62 25.5850 122.028 65 972 300 12 5
1948246N15134 1948 57 WP MM HAZEL 1948-09-06 12:00:00 TS 26.2000 122.100 main 122 122 O________OOO__ jtwc_wp WP131948 26.2000 122.100 60 0 26.2000 122.100 TC 60 26.2000 122.100 2 60 26.2000 122.100 60 974 300 12 9
1948246N15134 1948 57 WP MM HAZEL 1948-09-06 15:00:00 TS 26.7503 122.228 main 167 136 P________PPP__ WP131948 26.7425 122.220 60 0 26.7425 122.220 TC 60 26.7740 122.250 2 55 26.7425 122.220 60 976 270 12 14
1948246N15134 1948 57 WP MM HAZEL 1948-09-06 18:00:00 TS 27.3141 122.408 main 136 107 O________OPO__ jtwc_wp WP131948 27.3000 122.400 60 0 27.3000 122.400 TC 60 27.3705 122.442 2 50 27.3000 122.400 60 978 240 13 17
1948246N15134 1948 57 WP MM HAZEL 1948-09-06 21:00:00 TS 27.9546 122.639 main 103 103 P________PPP__ WP131948 27.9500 122.635 50 0 27.9500 122.635 TC 50 27.9817 122.663 2 45 27.9500 122.635 50 980 240 14 19
1948246N15134 1948 57 WP MM HAZEL 1948-09-07 00:00:00 TS 28.6000 122.900 main 110 102 O________OOO__ jtwc_wp WP131948 28.6000 122.900 40 0 28.6000 122.900 TC 40 28.6000 122.900 2 40 28.6000 122.900 40 983 240 13 20
1948246N15134 1948 57 WP MM HAZEL 1948-09-07 03:00:00 TS 29.1750 123.155 main 116 116 P________P_P__ WP131948 29.1750 123.155 35 0 29.1750 123.155 TC 35 2 29.1750 123.155 35 985 270 12 22
1948246N15134 1948 57 WP MM HAZEL 1948-09-07 06:00:00 TS 29.7000 123.400 main 145 O________O_O__ jtwc_wp WP131948 29.7000 123.400 30 -1 29.7000 123.400 TC 30 2 29.7000 123.400 30 988 300 11 22

デジタル台風データ・検索

IBTrACS Databaseについて

本データベースは、米国NOAAが公開する1842年以降の世界の熱帯低気圧のベストトラックデータアーカイブInternational Best Track Archive for Climate Stewardship (IBTrACS)を、ウェブで閲覧しやすい形式に変換したものです。

最終更新日:2021-10-08